Time;durP1;ratioP1;P1;durP2;ratioP2;P2;SDS_P1;SDS_P2;PMS_P1;PMS_P2;Temp;Humidity;BMP_temperature;BMP_pressure;BME280_temperature;BME280_humidity;BME280_pressure;Samples;Min_cycle;Max_cycle;Signal;HPM_P1;HPM_P2
2022/01/31 00:00:14;;;;;;;2.47;2.00;;;;;;;1.87;95.09;97274.48;1635650;86;21534;-77
2022/01/31 00:02:42;;;;;;;3.58;2.27;;;;;;;1.90;95.24;97271.33;1647379;86;21036;-78
2022/01/31 00:05:09;;;;;;;2.62;2.42;;;;;;;1.89;95.33;97266.55;1678951;85;21541;-80
2022/01/31 00:07:37;;;;;;;2.72;2.52;;;;;;;1.88;95.37;97258.84;1681358;85;21050;-77
2022/01/31 00:10:06;;;;;;;3.37;2.60;;;;;;;1.84;95.52;97271.80;1680833;85;21047;-76
2022/01/31 00:12:39;;;;;;;3.20;2.92;;;;;;;1.79;95.58;97267.79;1661777;85;21508;-78
2022/01/31 00:15:03;;;;;;;5.20;3.62;;;;;;;1.75;95.66;97260.88;1683497;84;21047;-84
2022/01/31 00:17:30;;;;;;;3.58;2.85;;;;;;;1.71;95.94;97267.73;1681382;85;21114;-80
2022/01/31 00:19:56;;;;;;;2.42;2.22;;;;;;;1.68;96.07;97267.42;1681171;85;22114;-79
2022/01/31 00:22:22;;;;;;;3.52;2.47;;;;;;;1.67;96.26;97271.95;1681200;85;21632;-77
2022/01/31 00:24:49;;;;;;;4.28;2.60;;;;;;;1.66;96.34;97258.95;1662592;85;21062;-75
2022/01/31 00:27:15;;;;;;;2.37;2.25;;;;;;;1.65;96.29;97252.84;1685025;84;21082;-76
2022/01/31 00:29:42;;;;;;;2.92;2.58;;;;;;;1.65;96.35;97252.05;1689060;83;20951;-77
2022/01/31 00:32:08;;;;;;;4.03;3.62;;;;;;;1.66;96.28;97259.75;1690366;83;21140;-85
2022/01/31 00:34:35;;;;;;;3.47;2.33;;;;;;;1.65;96.27;97244.09;1692574;84;21035;-74
2022/01/31 00:37:04;;;;;;;2.30;2.10;;;;;;;1.68;96.39;97255.50;1692063;83;21058;-75
2022/01/31 00:39:34;;;;;;;3.02;2.72;;;;;;;1.67;96.47;97242.81;1684243;83;21556;-74
2022/01/31 00:41:58;;;;;;;3.42;2.55;;;;;;;1.71;96.49;97238.59;1672322;85;20996;-77
2022/01/31 00:44:37;;;;;;;2.22;2.02;;;;;;;1.72;96.35;97238.88;1695979;84;21080;-77
2022/01/31 00:47:16;;;;;;;2.70;1.92;;;;;;;1.71;96.29;97240.45;1699133;84;21000;-80
2022/01/31 00:52:00;;;;;;;2.37;2.02;;;;;;;1.65;96.06;97235.63;1704108;84;21021;-78
2022/01/31 00:54:28;;;;;;;1.67;1.47;;;;;;;1.64;96.13;97220.78;1700905;84;21593;-77
2022/01/31 00:56:55;;;;;;;2.33;1.70;;;;;;;1.64;96.19;97231.38;1702109;84;21522;-77
2022/01/31 00:59:21;;;;;;;1.85;1.72;;;;;;;1.66;96.28;97235.10;1715318;83;20977;-77
2022/01/31 01:01:48;;;;;;;2.77;2.52;;;;;;;1.57;96.20;97233.45;1703925;83;21080;-81
2022/01/31 01:04:16;;;;;;;3.77;2.05;;;;;;;1.54;96.27;97227.31;1674534;83;21087;-80
2022/01/31 01:06:43;;;;;;;1.98;1.85;;;;;;;1.54;96.42;97229.97;1704057;83;21129;-76
2022/01/31 01:09:09;;;;;;;2.27;1.82;;;;;;;1.55;96.48;97244.00;1684678;84;21083;-77
2022/01/31 01:11:36;;;;;;;1.80;1.70;;;;;;;1.48;96.61;97230.99;1690495;84;22237;-75
2022/01/31 01:14:02;;;;;;;1.82;1.60;;;;;;;1.49;96.82;97241.84;1693445;84;21012;-76
2022/01/31 01:16:30;;;;;;;2.35;2.00;;;;;;;1.50;96.79;97242.64;1697622;84;21082;-77
2022/01/31 01:18:57;;;;;;;3.62;1.60;;;;;;;1.47;96.89;97228.59;1700562;84;21025;-74
2022/01/31 01:21:23;;;;;;;1.55;1.45;;;;;;;1.45;96.93;97232.80;1700685;83;21080;-76
2022/01/31 01:23:50;;;;;;;1.57;1.47;;;;;;;1.41;96.98;97248.13;1697282;83;21035;-74
2022/01/31 01:26:16;;;;;;;1.90;1.60;;;;;;;1.39;97.10;97237.77;1693994;84;21035;-75
2022/01/31 01:28:45;;;;;;;1.60;1.50;;;;;;;1.39;97.24;97244.94;1702641;84;21094;-76
2022/01/31 01:31:11;;;;;;;1.52;1.27;;;;;;;1.39;97.33;97244.94;1700721;84;21491;-71
2022/01/31 01:33:41;;;;;;;1.80;1.70;;;;;;;1.40;97.37;97236.72;1700566;83;21352;-80
2022/01/31 01:36:07;;;;;;;2.05;1.32;;;;;;;1.41;97.52;97230.39;1693734;84;21011;-78
2022/01/31 01:38:34;;;;;;;1.50;1.40;;;;;;;1.41;97.50;97241.50;1695946;84;21092;-74
2022/01/31 01:41:01;;;;;;;1.50;1.40;;;;;;;1.38;97.52;97234.87;1693470;84;21603;-77
2022/01/31 01:43:29;;;;;;;1.35;1.25;;;;;;;1.39;97.63;97235.67;1695902;83;20983;-77
2022/01/31 01:45:57;;;;;;;1.37;1.27;;;;;;;1.38;97.72;97232.23;1692780;84;21211;-76
2022/01/31 01:48:25;;;;;;;1.82;1.25;;;;;;;1.37;97.76;97233.27;1692315;84;21030;-78
2022/01/31 01:50:53;;;;;;;1.40;1.30;;;;;;;1.35;97.96;97239.84;1699442;83;21595;-76
2022/01/31 01:53:19;;;;;;;2.95;1.77;;;;;;;1.38;98.21;97245.98;1691173;84;21022;-77
2022/01/31 01:55:46;;;;;;;1.72;1.52;;;;;;;1.35;98.23;97256.53;1694113;84;21107;-76
2022/01/31 01:58:16;;;;;;;1.70;1.60;;;;;;;1.36;98.32;97253.37;1672029;84;21104;-76
2022/01/31 02:00:51;;;;;;;2.87;1.40;;;;;;;1.34;98.47;97246.22;1670216;84;21013;-74
2022/01/31 02:03:20;;;;;;;2.17;1.85;;;;;;;1.33;98.61;97249.38;1680626;83;21102;-70
2022/01/31 02:05:47;;;;;;;3.92;2.50;;;;;;;1.32;98.83;97249.11;1698754;84;20954;-72
2022/01/31 02:08:14;;;;;;;2.08;1.87;;;;;;;1.33;99.04;97243.29;1693547;84;21057;-71
2022/01/31 02:10:41;;;;;;;2.40;2.20;;;;;;;1.35;99.10;97237.20;1699426;83;21144;-69
2022/01/31 02:13:10;;;;;;;1.52;1.42;;;;;;;1.33;99.08;97240.64;1694465;84;21122;-69
2022/01/31 02:15:52;;;;;;;2.60;1.85;;;;;;;1.29;99.02;97238.51;1663976;84;21488;-72
2022/01/31 02:18:45;;;;;;;2.25;2.00;;;;;;;1.28;98.98;97240.88;1689931;83;21051;-69
2022/01/31 02:21:07;;;;;;;2.27;1.37;;;;;;;1.25;99.08;97236.06;1673845;84;21031;-69
2022/01/31 02:23:34;;;;;;;1.52;1.42;;;;;;;1.25;99.15;97232.09;1691604;84;21065;-70
2022/01/31 02:26:04;;;;;;;1.22;1.12;;;;;;;1.26;99.02;97236.86;1683748;84;21086;-69
2022/01/31 02:28:49;;;;;;;1.40;1.30;;;;;;;1.25;98.91;97235.26;1692776;84;21641;-72
2022/01/31 02:31:16;;;;;;;2.17;1.20;;;;;;;1.28;98.91;97226.31;1680976;84;21040;-70
2022/01/31 02:33:42;;;;;;;2.80;1.30;;;;;;;1.30;98.62;97232.66;1692552;82;21067;-74
2022/01/31 02:36:09;;;;;;;1.10;1.10;;;;;;;1.27;98.24;97228.67;1691176;83;21792;-72
2022/01/31 02:38:35;;;;;;;1.95;1.17;;;;;;;1.27;97.99;97229.20;1712630;83;21052;-73
2022/01/31 02:41:04;;;;;;;1.00;1.00;;;;;;;1.28;97.89;97228.16;1704274;84;21002;-71
2022/01/31 02:43:33;;;;;;;0.90;0.90;;;;;;;1.29;97.68;97233.73;1690476;84;21022;-72
2022/01/31 02:45:59;;;;;;;2.50;1.33;;;;;;;1.33;97.49;97231.38;1694793;83;21031;-73
2022/01/31 02:48:27;;;;;;;1.42;0.93;;;;;;;1.33;97.03;97241.44;1693195;83;21645;-72
2022/01/31 02:50:55;;;;;;;1.23;1.13;;;;;;;1.33;96.54;97240.64;1685685;85;21079;-73
2022/01/31 02:53:26;;;;;;;1.27;1.17;;;;;;;1.35;96.43;97239.84;1688320;84;21043;-72
2022/01/31 02:55:56;;;;;;;1.07;1.07;;;;;;;1.35;96.03;97243.82;1697973;83;21044;-73
2022/01/31 02:58:24;;;;;;;0.98;0.98;;;;;;;1.37;96.08;97236.44;1693008;84;21572;-74
2022/01/31 03:00:52;;;;;;;1.20;1.10;;;;;;;1.36;95.65;97240.93;1693169;83;21067;-73
2022/01/31 03:03:24;;;;;;;2.65;1.17;;;;;;;1.38;95.41;97237.52;1694078;83;21599;-74
2022/01/31 03:05:50;;;;;;;0.90;0.90;;;;;;;1.37;94.94;97241.73;1693482;84;20996;-73
2022/01/31 03:08:17;;;;;;;1.10;1.10;;;;;;;1.33;94.06;97255.20;1667494;86;20967;-74
2022/01/31 03:10:44;;;;;;;1.25;1.15;;;;;;;1.29;93.75;97245.64;1667240;86;21062;-74
2022/01/31 03:13:11;;;;;;;0.95;0.95;;;;;;;1.27;93.40;97247.21;1693589;83;21088;-73
2022/01/31 03:15:41;;;;;;;1.00;1.00;;;;;;;1.29;93.42;97241.67;1697738;83;21556;-76
2022/01/31 03:18:10;;;;;;;0.90;0.90;;;;;;;1.31;93.24;97244.33;1669101;85;21599;-71
2022/01/31 03:20:37;;;;;;;1.20;1.10;;;;;;;1.28;92.89;97247.48;1686382;85;21546;-74
2022/01/31 03:23:03;;;;;;;1.00;1.00;;;;;;;1.25;92.79;97249.30;1686967;84;21565;-74
2022/01/31 03:25:30;;;;;;;1.62;0.93;;;;;;;1.23;92.75;97247.96;1686427;84;21875;-75
2022/01/31 03:27:59;;;;;;;0.98;0.98;;;;;;;1.21;92.56;97250.84;1670875;84;38362;-76
2022/01/31 03:30:26;;;;;;;1.25;1.15;;;;;;;1.18;92.49;97260.62;1719023;83;20966;-74
2022/01/31 03:32:55;;;;;;;1.47;1.20;;;;;;;1.15;92.38;97256.36;1695251;83;20950;-75
2022/01/31 03:35:22;;;;;;;1.10;1.00;;;;;;;1.13;92.22;97270.35;1677287;84;20995;-74
2022/01/31 03:37:48;;;;;;;1.30;1.20;;;;;;;1.14;92.26;97263.49;1675599;84;21090;-74
2022/01/31 03:40:17;;;;;;;1.47;1.07;;;;;;;1.12;92.27;97260.80;1694813;83;20946;-75
2022/01/31 03:42:43;;;;;;;1.00;0.90;;;;;;;1.11;92.33;97265.30;1694962;84;20977;-73
2022/01/31 03:45:09;;;;;;;1.37;1.27;;;;;;;1.07;92.39;97256.78;1694841;84;21044;-73
2022/01/31 03:47:43;;;;;;;1.20;1.10;;;;;;;1.05;92.57;97252.28;1694332;83;21066;-74
2022/01/31 03:50:05;;;;;;;1.20;1.10;;;;;;;1.05;92.72;97249.11;1674868;84;21032;-74
2022/01/31 03:52:32;;;;;;;1.57;1.10;;;;;;;1.06;92.65;97244.59;1693279;84;20996;-73
2022/01/31 03:54:59;;;;;;;1.02;0.93;;;;;;;1.07;92.64;97249.64;1699081;83;21497;-72
2022/01/31 03:57:28;;;;;;;1.17;1.17;;;;;;;1.10;92.48;97262.40;1692734;83;21587;-72
2022/01/31 04:00:11;;;;;;;1.37;0.90;;;;;;;1.10;91.98;97257.11;1691186;84;21520;-72
2022/01/31 04:02:39;;;;;;;1.10;1.00;;;;;;;1.09;91.02;97247.56;1647099;85;21131;-73
2022/01/31 04:05:06;;;;;;;1.27;0.90;;;;;;;1.11;90.90;97260.52;1692242;84;21051;-73
2022/01/31 04:07:33;;;;;;;1.00;1.00;;;;;;;1.12;90.59;97260.80;1695530;83;21094;-72
2022/01/31 04:09:59;;;;;;;2.30;1.42;;;;;;;1.11;89.97;97277.73;1699204;83;21063;-74
2022/01/31 04:12:25;;;;;;;1.73;1.30;;;;;;;1.12;89.98;97260.28;1693527;83;20959;-73
2022/01/31 04:14:51;;;;;;;0.90;0.90;;;;;;;1.12;89.56;97261.61;1693684;84;21778;-73
2022/01/31 04:17:20;;;;;;;1.67;1.10;;;;;;;1.12;89.30;97264.78;1693452;83;20975;-73
2022/01/31 04:19:47;;;;;;;0.90;0.90;;;;;;;1.13;89.01;97271.16;1686764;85;21066;-73
2022/01/31 04:22:17;;;;;;;1.35;1.25;;;;;;;1.15;89.02;97276.21;1686382;84;21032;-74
2022/01/31 04:24:42;;;;;;;1.27;1.10;;;;;;;1.14;88.79;97278.57;1686330;85;21074;-73
2022/01/31 04:27:15;;;;;;;1.47;1.20;;;;;;;1.14;88.85;97288.64;1686579;85;22158;-73
2022/01/31 04:29:40;;;;;;;1.12;1.00;;;;;;;1.13;88.69;97282.27;1670437;83;21103;-73
2022/01/31 04:32:06;;;;;;;1.00;1.00;;;;;;;1.14;88.81;97290.48;1686475;84;21579;-72
2022/01/31 04:34:32;;;;;;;1.40;1.30;;;;;;;1.15;88.94;97280.17;1669056;84;21082;-74
2022/01/31 04:36:59;;;;;;;0.90;0.90;;;;;;;1.16;88.90;97267.20;1696115;84;21007;-72
2022/01/31 04:39:27;;;;;;;0.97;0.97;;;;;;;1.16;88.82;97283.88;1698293;84;21354;-72
2022/01/31 04:41:53;;;;;;;1.10;1.00;;;;;;;1.14;88.60;97288.64;1700465;84;20998;-73
2022/01/31 04:44:19;;;;;;;1.33;1.20;;;;;;;1.12;88.61;97280.66;1695318;84;21084;-71
2022/01/31 04:46:49;;;;;;;2.23;1.23;;;;;;;1.10;88.68;97303.94;1693515;84;21062;-70
2022/01/31 04:49:14;;;;;;;1.70;1.27;;;;;;;1.08;88.87;97294.91;1691987;84;21503;-70
2022/01/31 04:51:42;;;;;;;2.30;1.30;;;;;;;1.09;89.06;97303.14;1673226;84;20962;-70
2022/01/31 04:54:08;;;;;;;2.47;1.93;;;;;;;1.09;89.00;97319.02;1702033;84;20930;-69
2022/01/31 04:56:36;;;;;;;0.83;0.83;;;;;;;1.09;88.97;97299.69;1621004;85;21084;-71
2022/01/31 04:59:03;;;;;;;1.47;1.37;;;;;;;1.09;89.00;97299.17;1679223;84;21003;-69
2022/01/31 05:01:30;;;;;;;1.22;1.22;;;;;;;1.09;88.89;97304.46;1696125;84;21112;-67
2022/01/31 05:03:56;;;;;;;1.70;1.60;;;;;;;1.06;88.95;97300.16;1696119;84;21105;-69
2022/01/31 05:06:29;;;;;;;1.40;1.30;;;;;;;1.05;89.04;97309.17;1695781;84;21531;-71
2022/01/31 05:08:51;;;;;;;1.30;1.20;;;;;;;1.06;89.09;97313.39;1697634;84;20995;-69
2022/01/31 05:11:17;;;;;;;1.37;1.27;;;;;;;1.02;89.14;97318.39;1694018;84;21011;-72
2022/01/31 05:13:45;;;;;;;2.20;1.47;;;;;;;1.02;89.24;97322.88;1655133;86;21574;-72
2022/01/31 05:16:12;;;;;;;1.40;1.30;;;;;;;1.00;89.46;97324.98;1694685;84;21568;-72
2022/01/31 05:18:38;;;;;;;1.30;1.20;;;;;;;0.99;89.58;97329.48;1697727;84;21050;-72
2022/01/31 05:21:05;;;;;;;1.70;1.27;;;;;;;1.00;89.68;97319.17;1693704;84;21007;-75
2022/01/31 05:23:32;;;;;;;1.42;1.12;;;;;;;0.98;89.71;97313.84;1695061;84;21066;-71
2022/01/31 05:25:58;;;;;;;2.97;1.33;;;;;;;0.99;89.95;97328.16;1696027;84;21098;-74
2022/01/31 05:28:25;;;;;;;3.90;1.40;;;;;;;0.96;90.11;97308.78;1690955;84;21800;-73
2022/01/31 05:30:51;;;;;;;1.57;1.10;;;;;;;0.91;90.23;97319.34;1702889;83;21003;-72
2022/01/31 05:33:18;;;;;;;1.30;1.20;;;;;;;0.90;90.50;97328.31;1700374;83;20994;-72
2022/01/31 05:35:45;;;;;;;1.40;1.30;;;;;;;0.91;90.57;97333.88;1695333;84;21023;-71
2022/01/31 05:38:12;;;;;;;1.50;1.40;;;;;;;0.90;90.64;97323.54;1693932;84;21023;-70
2022/01/31 05:40:39;;;;;;;1.57;1.20;;;;;;;0.89;90.74;97326.70;1688307;83;21158;-70
2022/01/31 05:43:05;;;;;;;2.03;1.50;;;;;;;0.88;90.72;97337.81;1649551;86;21330;-72
2022/01/31 05:45:31;;;;;;;1.40;1.30;;;;;;;0.88;90.72;97342.30;1700250;84;21002;-70
2022/01/31 05:47:57;;;;;;;1.63;1.20;;;;;;;0.87;90.73;97333.55;1700108;84;21030;-71
2022/01/31 05:50:24;;;;;;;2.10;1.20;;;;;;;0.87;90.70;97351.27;1669385;84;21495;-70
2022/01/31 05:52:51;;;;;;;2.60;1.03;;;;;;;0.85;90.65;97361.31;1694879;84;21093;-70
2022/01/31 05:55:18;;;;;;;1.57;1.30;;;;;;;0.83;90.63;97364.20;1693402;84;21094;-69
2022/01/31 05:57:44;;;;;;;1.47;1.37;;;;;;;0.83;90.59;97350.16;1695491;84;21021;-70
2022/01/31 06:00:12;;;;;;;1.90;1.20;;;;;;;0.83;90.41;97355.45;1692594;84;21488;-69
2022/01/31 06:02:39;;;;;;;1.37;1.27;;;;;;;0.80;89.77;97360.73;1691974;84;20999;-71
2022/01/31 06:05:06;;;;;;;3.87;1.50;;;;;;;0.82;89.86;97351.20;1705131;82;21588;-71
2022/01/31 06:07:33;;;;;;;1.93;1.57;;;;;;;0.81;89.85;97354.40;1685567;84;21004;-73
2022/01/31 06:10:00;;;;;;;1.30;1.20;;;;;;;0.82;89.78;97378.46;1701599;83;21062;-73
2022/01/31 06:12:26;;;;;;;1.03;1.00;;;;;;;0.85;89.71;97371.90;1695967;83;21010;-74
2022/01/31 06:14:53;;;;;;;1.67;1.57;;;;;;;0.82;89.59;97390.88;1670863;84;21607;-71
2022/01/31 06:17:19;;;;;;;1.50;1.40;;;;;;;0.81;89.57;97367.62;1694896;84;21152;-74
2022/01/31 06:19:47;;;;;;;1.17;1.10;;;;;;;0.83;89.66;97366.03;1674393;84;21026;-71
2022/01/31 06:22:13;;;;;;;5.67;2.50;;;;;;;0.84;89.58;97363.67;1644192;85;21113;-70
2022/01/31 06:24:40;;;;;;;1.60;1.50;;;;;;;0.83;89.57;97374.78;1704433;84;20977;-70
2022/01/31 06:27:09;;;;;;;1.17;1.07;;;;;;;0.82;89.64;97371.84;1671840;83;21631;-72
2022/01/31 06:29:35;;;;;;;1.77;1.67;;;;;;;0.83;89.68;97381.39;1695856;84;21120;-71
2022/01/31 06:32:09;;;;;;;1.30;1.20;;;;;;;0.81;89.68;97390.11;1695226;84;21047;-71
2022/01/31 06:34:36;;;;;;;1.67;1.53;;;;;;;0.77;89.37;97384.20;1690926;84;21031;-72
2022/01/31 06:37:04;;;;;;;3.03;1.53;;;;;;;0.75;89.48;97387.63;1683761;85;21063;-71
2022/01/31 06:39:31;;;;;;;2.90;1.93;;;;;;;0.75;89.43;97369.11;1661840;85;21106;-71
2022/01/31 06:41:57;;;;;;;2.00;1.83;;;;;;;0.73;89.17;97391.02;1681013;85;21623;-71
2022/01/31 06:44:24;;;;;;;2.50;1.73;;;;;;;0.71;89.11;97409.80;1665681;84;21070;-74
2022/01/31 06:46:50;;;;;;;1.63;1.53;;;;;;;0.72;89.15;97393.41;1689091;83;21055;-73
2022/01/31 06:49:17;;;;;;;2.00;1.80;;;;;;;0.73;89.23;97386.53;1685424;84;21515;-73
2022/01/31 06:51:43;;;;;;;4.20;1.70;;;;;;;0.74;89.44;97398.72;1685338;85;21129;-72
2022/01/31 06:54:10;;;;;;;2.43;1.70;;;;;;;0.75;89.67;97380.49;1689078;83;22245;-75
2022/01/31 06:56:40;;;;;;;1.37;1.27;;;;;;;0.75;89.62;97389.75;1680724;85;21031;-69
2022/01/31 06:59:07;;;;;;;2.77;1.90;;;;;;;0.76;89.91;97394.01;1680849;85;21162;-68
2022/01/31 07:01:33;;;;;;;1.60;1.50;;;;;;;0.78;90.09;97381.84;1681203;85;21087;-66
2022/01/31 07:03:59;;;;;;;3.47;1.60;;;;;;;0.77;90.18;97392.13;1661641;85;21028;-69
2022/01/31 07:06:26;;;;;;;1.63;1.40;;;;;;;0.76;90.41;97397.97;1683903;85;21131;-71
2022/01/31 07:08:52;;;;;;;1.70;1.47;;;;;;;0.75;90.59;97398.20;1685619;84;21547;-71
2022/01/31 07:11:25;;;;;;;2.27;2.07;;;;;;;0.76;90.73;97411.20;1684671;85;21587;-71
2022/01/31 07:13:49;;;;;;;1.87;1.53;;;;;;;0.76;90.82;97400.62;1681256;85;21048;-70
2022/01/31 07:16:16;;;;;;;1.43;1.33;;;;;;;0.78;90.84;97398.52;1680925;85;21063;-70
2022/01/31 07:18:43;;;;;;;2.17;1.70;;;;;;;0.79;90.67;97396.67;1684633;85;21662;-73
2022/01/31 07:21:14;;;;;;;1.83;1.70;;;;;;;0.76;90.31;97413.84;1684718;85;21572;-70
2022/01/31 07:24:03;;;;;;;2.30;2.10;;;;;;;0.75;90.07;97400.33;1685857;85;21086;-72
2022/01/31 07:26:18;;;;;;;2.37;2.17;;;;;;;0.78;90.13;97408.29;1681854;83;21023;-73
2022/01/31 07:28:44;;;;;;;1.50;1.33;;;;;;;0.77;90.03;97415.94;1685016;84;21036;-76
2022/01/31 07:31:11;;;;;;;1.73;1.63;;;;;;;0.77;89.90;97415.94;1689206;84;21037;-71
2022/01/31 07:33:41;;;;;;;5.23;2.23;;;;;;;0.77;89.91;97409.33;1664612;84;20958;-72
2022/01/31 07:36:07;;;;;;;2.70;2.50;;;;;;;0.79;89.84;97403.28;1703332;83;21097;-72
2022/01/31 07:38:34;;;;;;;2.60;2.27;;;;;;;0.81;89.71;97406.50;1700498;84;21096;-71
2022/01/31 07:41:00;;;;;;;1.80;1.50;;;;;;;0.82;89.55;97404.91;1620754;85;21054;-72
2022/01/31 07:43:27;;;;;;;1.30;1.20;;;;;;;0.86;89.52;97414.52;1620226;85;21281;-72
2022/01/31 07:45:54;;;;;;;1.87;1.20;;;;;;;0.87;88.51;97418.73;1704253;84;20931;-72
2022/01/31 07:48:20;;;;;;;2.03;1.43;;;;;;;0.87;88.32;97445.99;1700345;84;21171;-73
2022/01/31 07:50:46;;;;;;;1.63;1.37;;;;;;;0.85;88.09;97432.23;1700496;84;21078;-75
2022/01/31 07:53:13;;;;;;;1.70;1.60;;;;;;;0.86;88.03;97431.16;1658001;86;21051;-73
2022/01/31 07:55:41;;;;;;;1.60;1.50;;;;;;;0.89;87.99;97452.38;1686625;84;21042;-74
2022/01/31 07:58:07;;;;;;;2.57;1.80;;;;;;;0.88;87.36;97439.66;1690989;84;21061;-76
2022/01/31 08:00:34;;;;;;;1.83;1.57;;;;;;;0.91;87.20;97455.59;1696291;84;21054;-81
2022/01/31 08:03:00;;;;;;;1.47;1.37;;;;;;;0.92;87.06;97462.46;1699401;84;21546;-74
2022/01/31 08:05:28;;;;;;;4.33;2.00;;;;;;;0.94;86.76;97455.09;1695906;84;21075;-76
2022/01/31 08:07:57;;;;;;;1.70;1.40;;;;;;;0.96;86.25;97458.83;1700547;84;21066;-74
2022/01/31 08:10:23;;;;;;;1.70;1.40;;;;;;;0.95;85.63;97487.13;1693742;83;21081;-74
2022/01/31 08:12:50;;;;;;;1.30;1.20;;;;;;;0.94;85.39;97473.62;1686919;84;21046;-74
2022/01/31 08:15:25;;;;;;;1.20;1.20;;;;;;;0.90;85.17;97455.83;1700768;84;21054;-77
2022/01/31 08:17:48;;;;;;;1.93;1.83;;;;;;;0.90;85.38;97470.37;1672462;84;21074;-79
2022/01/31 08:20:14;;;;;;;2.63;1.47;;;;;;;0.86;85.18;97488.59;1695257;84;21095;-79
2022/01/31 08:22:42;;;;;;;2.57;1.70;;;;;;;0.85;85.08;97491.75;1668689;84;21027;-78
2022/01/31 08:25:13;;;;;;;1.27;1.20;;;;;;;0.84;85.04;97477.44;1693190;84;21326;-76
2022/01/31 08:27:37;;;;;;;3.50;1.47;;;;;;;0.83;84.97;97485.08;1701725;84;21041;-74
2022/01/31 08:30:11;;;;;;;2.60;1.53;;;;;;;0.81;84.85;97465.50;1697465;84;21570;-77
2022/01/31 08:32:43;;;;;;;1.57;1.13;;;;;;;0.81;84.88;97472.63;1673476;84;21811;-73
2022/01/31 08:37:47;;;;;;;2.10;1.13;;;;;;;0.84;84.43;97523.73;1700499;84;21024;-74
2022/01/31 08:40:13;;;;;;;1.63;1.30;;;;;;;0.85;84.29;97498.36;1642422;85;21123;-72
2022/01/31 08:42:39;;;;;;;2.20;1.27;;;;;;;0.84;84.19;97509.18;1674141;84;21086;-74
2022/01/31 08:45:08;;;;;;;1.67;1.10;;;;;;;0.83;84.26;97509.70;1704101;83;21768;-73
2022/01/31 08:47:35;;;;;;;1.57;1.47;;;;;;;0.84;84.49;97515.28;1721763;83;21025;-74
2022/01/31 08:50:02;;;;;;;1.30;1.20;;;;;;;0.79;84.65;97527.09;1689483;84;21517;-75
2022/01/31 08:52:28;;;;;;;1.90;1.23;;;;;;;0.81;84.96;97522.90;1721638;83;21037;-78
2022/01/31 08:54:55;;;;;;;2.23;1.73;;;;;;;0.81;85.35;97525.55;1696179;83;21030;-74
2022/01/31 08:57:21;;;;;;;1.80;1.70;;;;;;;0.82;85.56;97517.34;1672558;84;21364;-75
2022/01/31 08:59:51;;;;;;;3.37;2.07;;;;;;;0.82;85.71;97531.09;1700571;84;20950;-75
2022/01/31 09:02:18;;;;;;;2.10;1.83;;;;;;;0.81;85.64;97522.90;1700432;84;21025;-74
2022/01/31 09:04:47;;;;;;;2.20;2.00;;;;;;;0.82;85.08;97529.77;1697346;84;21079;-75
2022/01/31 09:07:20;;;;;;;1.97;1.70;;;;;;;0.84;85.10;97512.62;1713450;82;21037;-75
2022/01/31 09:09:54;;;;;;;3.83;2.47;;;;;;;0.87;84.34;97528.53;1731349;82;21217;-73
2022/01/31 09:12:23;;;;;;;1.87;1.77;;;;;;;0.85;83.20;97516.88;1703258;82;20931;-75
2022/01/31 09:14:51;;;;;;;2.03;1.83;;;;;;;0.90;83.45;97524.62;1695072;84;21491;-76
2022/01/31 09:17:18;;;;;;;1.70;1.60;;;;;;;0.92;83.18;97539.71;1697989;83;21062;-74
2022/01/31 09:19:50;;;;;;;3.50;3.20;;;;;;;0.92;82.85;97564.84;1700685;83;21018;-84
2022/01/31 09:22:18;;;;;;;1.90;1.67;;;;;;;0.88;82.08;97534.91;1685873;84;21026;-77
2022/01/31 09:24:45;;;;;;;1.40;1.30;;;;;;;0.88;81.71;97543.37;1697112;84;21034;-77
2022/01/31 09:27:11;;;;;;;1.50;1.40;;;;;;;0.92;81.92;97542.36;1713810;83;21603;-76
2022/01/31 09:29:40;;;;;;;1.93;1.63;;;;;;;0.93;81.80;97541.32;1727231;83;21082;-79
2022/01/31 09:32:07;;;;;;;2.23;1.77;;;;;;;0.95;81.62;97554.61;1727323;83;21094;-82
2022/01/31 09:34:34;;;;;;;5.87;3.30;;;;;;;0.94;81.36;97538.45;1702450;83;21526;-78
2022/01/31 09:37:02;;;;;;;2.17;1.70;;;;;;;0.94;81.30;97545.58;1694398;84;20982;-77
2022/01/31 09:39:30;;;;;;;2.67;1.80;;;;;;;0.94;81.41;97537.13;1710359;83;21086;-75
2022/01/31 09:41:58;;;;;;;1.73;1.63;;;;;;;0.95;81.33;97546.67;1709470;83;21529;-75
2022/01/31 09:47:07;;;;;;;1.57;1.47;;;;;;;0.98;80.69;97544.86;1696666;84;21060;-80
2022/01/31 09:49:33;;;;;;;2.20;1.90;;;;;;;0.99;80.60;97564.19;1669686;84;20979;-80
2022/01/31 09:52:01;;;;;;;2.03;1.77;;;;;;;0.99;80.60;97561.02;1696447;84;20999;-78
2022/01/31 09:54:30;;;;;;;2.10;1.90;;;;;;;0.99;80.44;97586.16;1700379;84;21657;-83
2022/01/31 09:56:57;;;;;;;2.43;2.00;;;;;;;0.97;80.30;97573.67;1698160;84;21011;-78
2022/01/31 09:59:23;;;;;;;4.93;2.17;;;;;;;0.97;80.58;97569.70;1696301;84;21848;-79
2022/01/31 10:01:52;;;;;;;2.20;2.00;;;;;;;0.99;80.78;97571.61;1697151;83;21045;-77
2022/01/31 10:04:29;;;;;;;2.53;1.90;;;;;;;1.02;81.06;97588.83;1697142;83;20955;-76
2022/01/31 10:06:57;;;;;;;2.83;2.30;;;;;;;1.02;81.14;97584.34;1699240;84;21078;-74
2022/01/31 10:09:32;;;;;;;8.23;3.40;;;;;;;1.00;81.35;97579.02;1699790;84;21006;-80
2022/01/31 10:12:19;;;;;;;4.13;2.43;;;;;;;0.95;81.58;97620.77;1696500;84;21038;-80
2022/01/31 10:17:36;;;;;;;2.57;2.17;;;;;;;0.90;82.28;97584.95;1662589;85;21036;-87
2022/01/31 10:20:07;;;;;;;4.13;2.43;;;;;;;0.86;82.41;97601.03;1696682;84;21071;-77
2022/01/31 10:22:38;;;;;;;4.43;3.07;;;;;;;0.84;82.78;97598.61;1672505;82;21022;-77
2022/01/31 10:25:10;;;;;;;2.83;2.30;;;;;;;0.82;83.08;97594.59;1713992;82;21292;-75
2022/01/31 10:27:37;;;;;;;2.22;2.02;;;;;;;0.82;83.40;97615.23;1719276;83;21077;-76
2022/01/31 10:30:11;;;;;;;2.60;2.07;;;;;;;0.80;83.80;97608.07;1668801;84;21046;-75
2022/01/31 10:32:40;;;;;;;;;;;;;;;0.77;83.78;97607.20;1694281;84;21078;-78
2022/01/31 10:35:14;;;;;;;2.87;2.13;;;;;;;0.75;83.96;97590.78;1666268;84;20227;-75
2022/01/31 10:37:41;;;;;;;1.90;1.67;;;;;;;0.74;84.40;97586.53;1671725;84;21082;-80
2022/01/31 10:43:27;;;;;;;2.40;2.00;;;;;;;0.74;84.78;97597.11;1640800;84;21055;-77
2022/01/31 10:54:10;;;;;;;3.03;2.17;;;;;;;0.81;84.04;97603.59;1655645;84;21545;-87
2022/01/31 10:56:45;;;;;;;2.57;2.10;;;;;;;0.82;82.96;97626.33;1639915;86;21112;-78
2022/01/31 10:59:17;;;;;;;3.77;2.70;;;;;;;0.82;82.30;97606.48;1661677;86;21063;-83
2022/01/31 11:01:50;;;;;;;4.33;3.52;;;;;;;0.87;81.94;97607.38;1662351;86;21539;-77
2022/01/31 11:04:16;;;;;;;2.73;2.13;;;;;;;0.90;81.88;97592.09;1659213;84;21154;-80
2022/01/31 11:06:45;;;;;;;2.70;2.00;;;;;;;0.94;80.80;97597.17;1634830;85;41821;-75
2022/01/31 11:09:18;;;;;;;2.30;2.10;;;;;;;0.98;80.63;97600.42;1631326;87;21650;-77
2022/01/31 11:11:49;;;;;;;2.97;2.13;;;;;;;1.03;80.34;97587.80;1628711;88;21079;-83
2022/01/31 11:14:15;;;;;;;3.80;2.33;;;;;;;1.06;79.85;97605.83;1629908;88;21535;-83
2022/01/31 11:16:44;;;;;;;3.17;2.83;;;;;;;1.05;79.11;97598.95;1622902;87;22072;-81
2022/01/31 11:19:12;;;;;;;2.93;2.73;;;;;;;1.07;79.21;97637.87;1623804;87;20975;-78
2022/01/31 11:21:43;;;;;;;2.33;2.10;;;;;;;1.07;78.95;97623.32;1629949;88;21030;-73
2022/01/31 11:24:23;;;;;;;3.00;1.97;;;;;;;1.07;79.22;97630.74;1627885;86;21073;-75
2022/01/31 11:27:04;;;;;;;2.57;2.37;;;;;;;1.03;80.05;97636.23;1607576;88;21098;-77
2022/01/31 11:29:37;;;;;;;3.93;2.63;;;;;;;0.96;81.25;97646.16;1617247;86;21330;-80
2022/01/31 11:32:04;;;;;;;2.70;2.02;;;;;;;0.91;81.39;97610.38;1628806;87;21007;-81
2022/01/31 11:34:31;;;;;;;3.67;2.03;;;;;;;0.90;81.40;97627.29;1603418;86;22183;-80
2022/01/31 11:37:01;;;;;;;2.33;2.13;;;;;;;0.92;81.25;97619.09;1626695;87;21087;-82
2022/01/31 11:39:28;;;;;;;1.97;1.87;;;;;;;0.95;80.97;97632.67;1601674;88;21119;-82
2022/01/31 11:42:00;;;;;;;1.70;1.60;;;;;;;0.98;78.92;97622.92;1622613;88;21027;-76
2022/01/31 11:44:51;;;;;;;1.90;1.80;;;;;;;1.03;78.62;97619.55;1608374;87;20938;-76
2022/01/31 11:47:23;;;;;;;2.60;1.87;;;;;;;1.07;77.38;97628.09;1627128;87;20973;-79
2022/01/31 11:49:54;;;;;;;2.57;2.07;;;;;;;1.09;76.50;97632.64;1633795;86;21053;-76
2022/01/31 11:52:21;;;;;;;3.83;1.73;;;;;;;1.11;76.48;97650.39;1629238;87;21552;-76
2022/01/31 11:55:03;;;;;;;2.43;1.80;;;;;;;1.15;76.37;97625.59;1658540;86;21135;-75
2022/01/31 11:57:32;;;;;;;1.53;1.43;;;;;;;1.14;75.68;97631.41;1622400;87;20976;-70
2022/01/31 12:00:08;;;;;;;2.13;1.70;;;;;;;1.11;75.38;97666.27;1629898;87;21088;-73
2022/01/31 12:02:46;;;;;;;3.30;2.10;;;;;;;1.11;76.19;97656.20;1627051;87;21056;-74
2022/01/31 12:05:20;;;;;;;2.20;2.00;;;;;;;1.09;76.31;97664.92;1628598;87;21030;-74
2022/01/31 12:07:47;;;;;;;1.90;1.80;;;;;;;1.06;76.55;97674.64;1618845;88;21126;-75